Time;durP1;ratioP1;P1;durP2;ratioP2;P2;SDS_P1;SDS_P2;PMS_P1;PMS_P2;Temp;Humidity;BMP_temperature;BMP_pressure;BME280_temperature;BME280_humidity;BME280_pressure;Samples;Min_cycle;Max_cycle;Signal;HPM_P1;HPM_P2
2022/05/18 00:00:49;;;;;;;5.07;4.05;;;512.30;2380.80;;;;;;5097465;28;20024;-82
2022/05/18 00:03:18;;;;;;;5.15;3.65;;;512.30;2380.80;;;;;;5097266;28;20043;-81
2022/05/18 00:05:45;;;;;;;4.60;3.53;;;512.30;2380.80;;;;;;5096557;28;20072;-80
2022/05/18 00:08:11;;;;;;;6.68;4.30;;;512.20;2380.80;;;;;;5097658;28;20039;-81
2022/05/18 00:10:39;;;;;;;5.55;3.90;;;512.30;2380.80;;;;;;5099850;28;20357;-81
2022/05/18 00:13:05;;;;;;;6.32;4.15;;;512.30;2380.80;;;;;;5099143;28;20035;-82
2022/05/18 00:15:32;;;;;;;7.25;4.68;;;512.20;2380.80;;;;;;5098944;28;20024;-83
2022/05/18 00:17:57;;;;;;;5.10;4.10;;;487.30;2380.80;;;;;;5108981;28;20024;-83
2022/05/18 00:20:24;;;;;;;5.63;3.95;;;512.10;2380.80;;;;;;5121237;28;20072;-81
2022/05/18 00:22:55;;;;;;;4.85;3.80;;;512.10;2380.80;;;;;;5120420;28;20022;-81
2022/05/18 00:25:28;;;;;;;5.75;3.72;;;512.10;2380.80;;;;;;5120380;28;20104;-82
2022/05/18 00:27:54;;;;;;;;;;;512.30;2380.80;;;;;;5121116;28;20096;-82
2022/05/18 00:30:21;;;;;;;5.15;4.18;;;512.10;2380.80;;;;;;5119984;28;19908;-83
2022/05/18 00:32:47;;;;;;;7.53;4.00;;;512.20;2380.80;;;;;;5119620;28;20023;-82
2022/05/18 00:35:14;;;;;;;5.70;3.95;;;512.20;2380.80;;;;;;5120268;28;20012;-81
2022/05/18 00:37:40;;;;;;;6.78;4.28;;;512.20;2380.80;;;;;;5120320;28;20019;-82
2022/05/18 00:40:08;;;;;;;9.18;4.40;;;512.20;2380.80;;;;;;5119086;28;20024;-82
2022/05/18 00:42:34;;;;;;;7.03;4.60;;;512.10;2380.80;;;;;;5119976;28;20023;-82
2022/05/18 00:45:00;;;;;;;6.20;4.03;;;512.10;2380.80;;;;;;5120181;28;20024;-80
2022/05/18 00:47:25;;;;;;;8.52;5.03;;;512.10;2380.80;;;;;;5115767;28;20036;-78
2022/05/18 00:49:56;;;;;;;6.00;4.30;;;512.10;2380.80;;;;;;5116002;28;20042;-80
2022/05/18 00:52:31;;;;;;;6.90;4.88;;;512.10;2380.80;;;;;;5120190;28;20008;-81
2022/05/18 00:54:59;;;;;;;7.93;4.88;;;512.10;2380.80;;;;;;5120306;28;20038;-80
2022/05/18 00:57:32;;;;;;;6.32;4.68;;;512.00;2380.80;;;;;;5117350;28;20024;-82
2022/05/18 01:00:11;;;;;;;6.85;5.00;;;512.10;2380.80;;;;;;5095995;28;20024;-82
2022/05/18 01:02:40;;;;;;;9.45;4.82;;;512.10;2380.80;;;;;;5095190;28;20024;-81
2022/05/18 01:05:08;;;;;;;5.43;4.57;;;512.10;2380.80;;;;;;5096101;28;20531;-81
2022/05/18 01:07:39;;;;;;;6.57;5.20;;;512.00;2380.80;;;;;;5094428;28;20035;-83
2022/05/18 01:10:06;;;;;;;6.40;5.70;;;512.00;2380.80;;;;;;5094287;28;20383;-81
2022/05/18 01:12:32;;;;;;;7.03;5.20;;;512.00;2380.80;;;;;;5094027;28;20028;-81
2022/05/18 01:15:08;;;;;;;7.40;4.90;;;512.00;2380.80;;;;;;5094262;28;20035;-82
2022/05/18 01:17:40;;;;;;;7.32;5.45;;;512.00;2380.80;;;;;;5094058;28;20035;-81
2022/05/18 01:20:12;;;;;;;6.07;5.03;;;512.10;2380.80;;;;;;5094296;28;20020;-82
2022/05/18 01:22:57;;;;;;;8.23;5.50;;;512.10;2380.80;;;;;;5094273;28;20024;-81
2022/05/18 01:26:05;;;;;;;6.63;5.10;;;512.10;2380.80;;;;;;5110443;28;20120;-82
2022/05/18 01:28:39;;;;;;;7.40;5.18;;;512.10;2380.80;;;;;;5093959;28;20085;-82
2022/05/18 01:31:04;;;;;;;7.95;4.88;;;512.10;2380.80;;;;;;5093899;28;20032;-80
2022/05/18 01:33:32;;;;;;;8.73;5.32;;;512.10;2380.80;;;;;;5093856;28;20382;-81
2022/05/18 01:35:58;;;;;;;7.40;5.50;;;512.10;2380.80;;;;;;5093868;28;20134;-82
2022/05/18 01:38:24;;;;;;;7.65;6.35;;;512.10;2380.80;;;;;;5093588;28;20153;-81
2022/05/18 01:41:18;;;;;;;8.30;5.93;;;512.10;2380.80;;;;;;5094980;28;20455;-81
2022/05/18 01:43:49;;;;;;;6.20;5.40;;;512.10;2380.80;;;;;;5092722;28;20042;-81
2022/05/18 01:46:17;;;;;;;7.65;6.20;;;512.10;2380.80;;;;;;5093224;28;20035;-81
2022/05/18 01:48:47;;;;;;;8.15;6.63;;;512.10;2380.80;;;;;;5093637;28;20036;-82
2022/05/18 01:51:25;;;;;;;7.13;6.28;;;512.10;2380.80;;;;;;5093571;28;20053;-82
2022/05/18 01:53:50;;;;;;;7.95;6.63;;;512.00;2380.80;;;;;;5094916;28;20027;-82
2022/05/18 01:56:16;;;;;;;6.97;6.28;;;512.10;2380.80;;;;;;5095062;28;20032;-82
2022/05/18 01:58:42;;;;;;;8.63;6.32;;;512.10;2380.80;;;;;;5093456;28;20075;-82
2022/05/18 02:01:08;;;;;;;8.27;7.35;;;512.10;2380.80;;;;;;5093225;28;20085;-81
2022/05/18 02:03:33;;;;;;;7.20;6.20;;;512.10;2380.80;;;;;;5093372;28;20395;-81
2022/05/18 02:05:59;;;;;;;7.32;6.20;;;512.10;2380.80;;;;;;5092922;28;20031;-81
2022/05/18 02:08:25;;;;;;;6.95;6.20;;;512.10;2380.80;;;;;;5092910;28;20032;-82
2022/05/18 02:10:51;;;;;;;10.20;6.97;;;512.10;2380.80;;;;;;5093236;28;20099;-82
2022/05/18 02:13:18;;;;;;;8.23;5.82;;;512.10;2380.80;;;;;;5092946;28;20518;-81
2022/05/18 02:15:44;;;;;;;8.93;6.10;;;512.10;2380.80;;;;;;5094633;28;20028;-82
2022/05/18 02:18:10;;;;;;;7.15;6.45;;;487.30;2380.80;;;;;;5093073;28;20100;-81
2022/05/18 02:20:37;;;;;;;10.27;6.32;;;512.00;2380.80;;;;;;5092876;28;20028;-82
2022/05/18 02:23:02;;;;;;;7.88;6.53;;;512.00;2380.80;;;;;;5094187;28;20410;-80
2022/05/18 02:25:28;;;;;;;6.80;6.03;;;487.30;2380.80;;;;;;5092628;28;20044;-81
2022/05/18 02:27:55;;;;;;;8.77;6.05;;;487.30;2380.80;;;;;;5092739;28;20036;-82
2022/05/18 02:30:21;;;;;;;10.18;5.93;;;487.30;2380.80;;;;;;5094189;28;20082;-81
2022/05/18 02:32:47;;;;;;;6.20;5.40;;;487.30;2380.80;;;;;;5092934;28;20024;-81
2022/05/18 02:35:13;;;;;;;7.05;5.57;;;487.30;2380.80;;;;;;5093868;28;20020;-82
2022/05/18 02:37:39;;;;;;;6.88;5.53;;;487.20;2380.80;;;;;;5092709;28;20454;-80
2022/05/18 02:40:08;;;;;;;5.93;5.22;;;487.30;2380.80;;;;;;5093127;28;20062;-82
2022/05/18 02:42:34;;;;;;;7.00;5.05;;;487.20;2380.80;;;;;;5094810;28;20032;-81
2022/05/18 02:45:00;;;;;;;6.60;5.68;;;487.10;2380.80;;;;;;5095206;28;20030;-82
2022/05/18 02:47:25;;;;;;;7.95;5.57;;;487.10;2380.80;;;;;;5092780;28;20360;-81
2022/05/18 02:49:51;;;;;;;7.43;5.88;;;487.00;2380.80;;;;;;5092619;28;20050;-82
2022/05/18 02:52:18;;;;;;;7.70;5.18;;;487.00;2380.80;;;;;;5092720;28;20051;-80
2022/05/18 02:57:28;;;;;;;7.68;5.25;;;486.90;2380.80;;;;;;5097870;28;20035;-80
2022/05/18 02:59:53;;;;;;;8.48;6.07;;;486.80;2380.80;;;;;;5096862;28;20024;-80
2022/05/18 03:02:19;;;;;;;8.63;6.03;;;486.80;2380.80;;;;;;5096553;28;20032;-80
2022/05/18 03:04:45;;;;;;;9.85;5.57;;;486.80;2380.80;;;;;;5097143;28;20024;-81
2022/05/18 03:07:11;;;;;;;7.07;6.03;;;486.70;2380.80;;;;;;5096525;28;20036;-82
2022/05/18 03:09:37;;;;;;;9.98;6.15;;;486.70;2380.80;;;;;;5097460;28;20035;-82
2022/05/18 03:12:04;;;;;;;7.32;5.97;;;486.70;2380.80;;;;;;5096525;28;20387;-81
2022/05/18 03:14:30;;;;;;;6.70;6.03;;;486.60;2380.80;;;;;;5096551;28;20035;-82
2022/05/18 03:16:56;;;;;;;7.00;5.35;;;486.70;2380.80;;;;;;5100142;28;20032;-80
2022/05/18 03:19:23;;;;;;;7.85;5.65;;;486.60;2380.80;;;;;;5105555;28;20047;-80
2022/05/18 03:24:33;;;;;;;7.55;5.47;;;486.60;2380.80;;;;;;5096991;28;20533;-81
2022/05/18 03:26:59;;;;;;;8.30;5.70;;;486.60;2380.80;;;;;;5096388;28;20097;-81
2022/05/18 03:29:25;;;;;;;8.25;5.85;;;486.50;2380.80;;;;;;5096376;28;20452;-81
2022/05/18 03:31:51;;;;;;;8.65;6.22;;;486.50;2380.80;;;;;;5095842;28;20032;-81
2022/05/18 03:34:17;;;;;;;8.32;5.97;;;486.60;2380.80;;;;;;5097103;28;20421;-82
2022/05/18 03:36:42;;;;;;;7.55;6.25;;;486.50;2380.80;;;;;;5096246;28;20028;-81
2022/05/18 03:39:09;;;;;;;6.90;6.05;;;486.40;2380.80;;;;;;5096769;28;20028;-82
2022/05/18 03:41:35;;;;;;;7.35;5.70;;;461.20;2380.80;;;;;;5095989;28;20030;-81
2022/05/18 03:44:02;;;;;;;6.75;5.97;;;486.40;2380.80;;;;;;5095711;28;20383;-81
2022/05/18 03:46:28;;;;;;;7.35;5.95;;;486.40;2380.80;;;;;;5096158;28;20357;-83
2022/05/18 03:48:54;;;;;;;7.18;6.07;;;486.40;2380.80;;;;;;5097570;28;20039;-83
2022/05/18 03:51:20;;;;;;;9.38;7.38;;;486.40;2380.80;;;;;;5095592;28;20459;-83
2022/05/18 03:53:46;;;;;;;8.80;6.22;;;486.40;2380.80;;;;;;5095718;28;20031;-82
2022/05/18 03:56:13;;;;;;;8.38;6.03;;;461.70;2380.80;;;;;;5095861;28;20081;-82
2022/05/18 03:58:40;;;;;;;6.78;5.93;;;486.40;2380.80;;;;;;5095606;28;20032;-83
2022/05/18 04:01:10;;;;;;;9.10;6.18;;;486.40;2380.80;;;;;;5095748;28;20036;-82
2022/05/18 04:03:39;;;;;;;6.22;5.63;;;486.40;2380.80;;;;;;5095832;28;20114;-82
2022/05/18 04:06:05;;;;;;;9.15;6.28;;;486.40;2380.80;;;;;;5094484;28;20031;-83
2022/05/18 04:08:31;;;;;;;7.35;5.90;;;486.50;2380.80;;;;;;5095256;28;20024;-82
2022/05/18 04:10:58;;;;;;;6.97;6.28;;;486.50;2380.80;;;;;;5095524;28;20029;-82
2022/05/18 04:13:25;;;;;;;8.57;6.18;;;486.50;2380.80;;;;;;5095228;28;20028;-81
2022/05/18 04:15:52;;;;;;;8.27;6.03;;;486.60;2380.80;;;;;;5095508;28;20024;-82
2022/05/18 04:18:18;;;;;;;8.20;6.50;;;486.60;2380.80;;;;;;5096613;28;20032;-82
2022/05/18 04:20:45;;;;;;;6.97;6.28;;;486.90;2380.80;;;;;;5095101;28;20137;-82
2022/05/18 04:23:12;;;;;;;6.82;6.13;;;486.70;2380.80;;;;;;5095246;28;20124;-81
2022/05/18 04:25:41;;;;;;;7.28;6.30;;;486.70;2380.80;;;;;;5094937;28;20051;-81
2022/05/18 04:28:07;;;;;;;7.65;6.78;;;486.60;2380.80;;;;;;5094497;28;20123;-80
2022/05/18 04:30:34;;;;;;;7.43;6.63;;;486.60;2380.80;;;;;;5095215;28;20024;-80
2022/05/18 04:33:00;;;;;;;9.95;7.60;;;486.50;2380.80;;;;;;5095072;28;20028;-80
2022/05/18 04:35:28;;;;;;;8.20;7.20;;;486.60;2380.80;;;;;;5095274;28;20024;-82
2022/05/18 04:37:54;;;;;;;10.73;7.40;;;486.60;2380.80;;;;;;5095595;28;20052;-81
2022/05/18 04:40:20;;;;;;;8.63;7.72;;;486.50;2380.80;;;;;;5094940;28;20080;-80
2022/05/18 04:42:47;;;;;;;12.80;7.80;;;486.60;2380.80;;;;;;5096114;28;20020;-80
2022/05/18 04:45:15;;;;;;;11.65;7.50;;;486.60;2380.80;;;;;;5095026;28;20024;-84
2022/05/18 04:47:41;;;;;;;9.48;7.40;;;486.60;2380.80;;;;;;5094425;28;20035;-82
2022/05/18 04:50:08;;;;;;;9.25;7.78;;;486.60;2380.80;;;;;;5096635;28;20028;-82
2022/05/18 04:52:34;;;;;;;8.52;7.40;;;486.60;2380.80;;;;;;5095123;28;20439;-82
2022/05/18 04:54:59;;;;;;;10.50;7.82;;;486.60;2380.80;;;;;;5094709;28;20066;-82
2022/05/18 04:57:25;;;;;;;9.35;7.97;;;486.60;2380.80;;;;;;5096118;28;20085;-83
2022/05/18 04:59:51;;;;;;;7.60;6.80;;;486.70;2380.80;;;;;;5095105;28;20075;-82
2022/05/18 05:02:17;;;;;;;7.57;6.57;;;486.70;2380.80;;;;;;5096271;28;20465;-82
2022/05/18 05:04:44;;;;;;;9.55;7.50;;;486.70;2380.80;;;;;;5094958;28;20071;-81
2022/05/18 05:07:10;;;;;;;9.82;6.68;;;486.70;2380.80;;;;;;5094385;28;20028;-81
2022/05/18 05:09:37;;;;;;;8.93;6.95;;;486.80;2380.80;;;;;;5094413;28;20024;-81
2022/05/18 05:12:04;;;;;;;8.40;6.82;;;486.70;2380.80;;;;;;5094723;28;20448;-82
2022/05/18 05:14:30;;;;;;;10.90;7.78;;;486.70;2380.80;;;;;;5095626;28;20032;-80
2022/05/18 05:16:56;;;;;;;8.15;7.22;;;486.80;2380.80;;;;;;5094106;28;20048;-81
2022/05/18 05:19:22;;;;;;;9.18;7.22;;;486.80;2380.80;;;;;;5094387;28;20058;-82
2022/05/18 05:21:48;;;;;;;7.97;7.18;;;486.80;2380.80;;;;;;5095304;28;20024;-82
2022/05/18 05:24:15;;;;;;;8.90;7.45;;;486.90;2380.80;;;;;;5094352;28;20020;-81
2022/05/18 05:26:42;;;;;;;8.15;7.35;;;486.90;2380.80;;;;;;5094487;28;20051;-83
2022/05/18 05:29:08;;;;;;;8.48;7.68;;;487.00;2380.80;;;;;;5093939;28;20447;-83
2022/05/18 05:31:35;;;;;;;8.98;7.88;;;486.90;2380.80;;;;;;5094322;28;20470;-82
2022/05/18 05:34:01;;;;;;;10.13;9.13;;;487.10;2380.80;;;;;;5095069;28;20055;-81
2022/05/18 05:36:28;;;;;;;11.32;8.65;;;487.10;2380.80;;;;;;5093742;28;20431;-82
2022/05/18 05:38:54;;;;;;;11.73;8.75;;;487.10;2380.80;;;;;;5094138;28;20471;-82
2022/05/18 05:41:20;;;;;;;9.70;8.70;;;487.10;2380.80;;;;;;5093939;28;20489;-81
2022/05/18 05:43:46;;;;;;;9.23;8.32;;;487.10;2380.80;;;;;;5093920;28;20050;-81
2022/05/18 05:46:16;;;;;;;10.35;9.27;;;487.10;2380.80;;;;;;5107954;28;20020;-79
2022/05/18 05:48:44;;;;;;;14.13;8.50;;;487.20;2380.80;;;;;;5101004;28;20032;-80
2022/05/18 05:51:12;;;;;;;9.88;8.93;;;487.20;2380.80;;;;;;5093537;28;20032;-82
2022/05/18 05:53:45;;;;;;;9.38;8.48;;;487.20;2380.80;;;;;;5093538;28;20024;-81
2022/05/18 05:56:12;;;;;;;9.65;8.60;;;487.30;2380.80;;;;;;5093680;28;20169;-81
2022/05/18 05:58:38;;;;;;;9.95;8.50;;;512.00;2380.80;;;;;;5093184;28;20031;-82
2022/05/18 06:01:06;;;;;;;10.23;8.82;;;512.00;2380.80;;;;;;5094407;28;20473;-82
2022/05/18 06:03:33;;;;;;;11.25;8.20;;;512.00;2380.80;;;;;;5093601;28;20059;-82
2022/05/18 06:05:59;;;;;;;11.45;9.57;;;512.10;2380.80;;;;;;5093205;28;20248;-81
2022/05/18 06:08:25;;;;;;;9.05;8.15;;;512.30;2380.80;;;;;;5093399;28;20024;-81
2022/05/18 06:10:51;;;;;;;11.93;8.88;;;512.30;2380.80;;;;;;5093605;28;20040;-82
2022/05/18 06:13:17;;;;;;;8.95;8.02;;;512.40;2380.80;;;;;;5093148;28;20035;-82
2022/05/18 06:15:43;;;;;;;9.77;8.77;;;512.30;2380.80;;;;;;5093145;28;20024;-80
2022/05/18 06:18:09;;;;;;;9.90;9.00;;;512.40;2380.80;;;;;;5092866;28;20032;-80
2022/05/18 06:20:35;;;;;;;10.95;7.43;;;512.40;2380.80;;;;;;5093042;28;20077;-80
2022/05/18 06:23:06;;;;;;;6.93;6.10;;;512.40;2380.80;;;;;;5093051;28;20043;-80
2022/05/18 06:25:33;;;;;;;7.47;5.90;;;512.40;2380.80;;;;;;5092605;28;20055;-82
2022/05/18 06:27:59;;;;;;;6.82;4.78;;;512.30;2380.80;;;;;;5093048;28;20032;-83
2022/05/18 06:30:25;;;;;;;11.35;5.03;;;512.10;2380.80;;;;;;5092579;28;20031;-81
2022/05/18 06:32:50;;;;;;;12.35;4.90;;;512.30;2380.80;;;;;;5100746;28;20028;-77
2022/05/18 06:35:16;;;;;;;9.35;5.55;;;487.30;2380.80;;;;;;5116824;28;20012;-81
2022/05/18 06:37:42;;;;;;;6.95;4.90;;;487.30;2380.80;;;;;;5117692;28;20051;-80
2022/05/18 06:40:09;;;;;;;5.10;4.03;;;487.30;2380.80;;;;;;5116858;28;20016;-80
2022/05/18 06:42:34;;;;;;;8.60;4.43;;;487.30;2380.80;;;;;;5110048;28;20028;-79
2022/05/18 06:45:03;;;;;;;7.05;3.80;;;487.30;2380.80;;;;;;5092956;28;20110;-81
2022/05/18 06:47:29;;;;;;;5.65;4.32;;;512.10;2380.80;;;;;;5092811;28;20352;-81
2022/05/18 06:49:55;;;;;;;6.40;4.60;;;487.30;2380.80;;;;;;5092835;28;20042;-81
2022/05/18 06:52:21;;;;;;;5.90;4.10;;;487.30;2380.80;;;;;;5092703;28;20421;-81
2022/05/18 06:54:48;;;;;;;5.97;4.05;;;487.30;2380.80;;;;;;5092434;28;20379;-80
2022/05/18 06:57:14;;;;;;;8.43;4.80;;;512.00;2380.80;;;;;;5092564;28;20456;-81
2022/05/18 06:59:39;;;;;;;10.15;5.28;;;512.20;2380.80;;;;;;5092597;28;20028;-81
2022/05/18 07:02:06;;;;;;;6.32;4.68;;;512.30;2380.80;;;;;;5092259;28;20352;-82
2022/05/18 07:04:32;;;;;;;5.97;4.63;;;512.30;2380.80;;;;;;5092403;28;20035;-81
2022/05/18 07:07:00;;;;;;;6.45;4.53;;;512.40;2380.80;;;;;;5092057;28;20033;-81
2022/05/18 07:09:26;;;;;;;8.43;4.40;;;512.40;2380.80;;;;;;5092458;28;20028;-81
2022/05/18 07:11:53;;;;;;;5.60;4.45;;;512.40;2380.80;;;;;;5093323;28;20029;-80
2022/05/18 07:14:28;;;;;;;6.28;4.25;;;537.60;2406.40;;;;;;5092104;28;20035;-80
2022/05/18 07:16:55;;;;;;;8.52;4.18;;;512.50;2380.80;;;;;;5092273;28;20028;-81
2022/05/18 07:19:23;;;;;;;5.57;3.67;;;512.50;2380.80;;;;;;5092304;28;20031;-81
2022/05/18 07:21:49;;;;;;;6.95;4.47;;;512.60;2380.80;;;;;;5091948;28;20119;-82
2022/05/18 07:24:16;;;;;;;8.05;3.85;;;512.60;2380.80;;;;;;5092233;28;20024;-80
2022/05/18 07:26:43;;;;;;;6.28;3.85;;;512.70;2380.80;;;;;;5092049;28;20440;-81
2022/05/18 07:29:10;;;;;;;10.02;3.75;;;512.70;2380.80;;;;;;5092024;28;20051;-80
2022/05/18 07:34:23;;;;;;;4.90;3.10;;;512.90;2380.80;;;;;;5093511;28;20490;-80
2022/05/18 07:36:52;;;;;;;5.88;3.40;;;537.60;2406.40;;;;;;5091911;28;20031;-78
2022/05/18 07:39:18;;;;;;;7.15;3.78;;;538.00;2406.40;;;;;;5092103;28;20020;-78
2022/05/18 07:41:44;;;;;;;10.13;3.88;;;538.30;2406.40;;;;;;5094579;28;20482;-78
2022/05/18 07:44:11;;;;;;;5.68;3.28;;;538.20;2406.40;;;;;;5096920;28;20024;-77
2022/05/18 07:46:37;;;;;;;6.68;3.40;;;538.20;2406.40;;;;;;5097187;28;20024;-81
2022/05/18 07:49:03;;;;;;;6.32;3.70;;;538.40;2406.40;;;;;;5095799;28;20038;-80
2022/05/18 07:51:29;;;;;;;6.95;4.65;;;538.40;2406.40;;;;;;5096995;28;20208;-79
2022/05/18 07:53:55;;;;;;;7.25;4.68;;;538.40;2406.40;;;;;;5095709;28;20036;-78
2022/05/18 07:56:21;;;;;;;4.78;3.15;;;538.30;2406.40;;;;;;5095207;28;20063;-78
2022/05/18 07:58:46;;;;;;;5.32;3.40;;;538.00;2406.40;;;;;;5095766;28;20055;-79
2022/05/18 08:01:12;;;;;;;5.68;2.90;;;538.00;2406.40;;;;;;5095905;28;20478;-78
2022/05/18 08:03:38;;;;;;;5.82;3.47;;;537.90;2406.40;;;;;;5096067;28;20055;-82
2022/05/18 08:06:04;;;;;;;5.20;3.10;;;537.70;2406.40;;;;;;5097897;28;20023;-80
2022/05/18 08:08:30;;;;;;;4.53;2.85;;;537.80;2406.40;;;;;;5097878;28;20039;-79
2022/05/18 08:16:25;;;;;;;5.95;3.13;;;537.60;2406.40;;;;;;5096351;28;20063;-76
2022/05/18 08:18:51;;;;;;;6.60;4.07;;;537.60;2406.40;;;;;;5095016;28;20120;-79
2022/05/18 08:21:18;;;;;;;4.93;2.97;;;512.90;2380.80;;;;;;5095165;28;20028;-78
2022/05/18 08:23:44;;;;;;;4.95;3.05;;;512.90;2380.80;;;;;;5095087;28;20026;-77
2022/05/18 08:26:10;;;;;;;9.60;5.00;;;537.60;2406.40;;;;;;5094586;28;20399;-77
2022/05/18 08:28:37;;;;;;;7.32;4.00;;;537.80;2406.40;;;;;;5094843;28;20111;-77
2022/05/18 08:31:03;;;;;;;6.32;3.92;;;538.20;2406.40;;;;;;5095968;28;20470;-76
2022/05/18 08:33:31;;;;;;;9.38;3.30;;;537.70;2406.40;;;;;;5094889;28;20028;-75
2022/05/18 08:35:58;;;;;;;8.32;6.25;;;537.60;2406.40;;;;;;5096085;28;20525;-76
2022/05/18 08:38:25;;;;;;;6.63;3.08;;;537.60;2406.40;;;;;;5094644;28;20039;-75
2022/05/18 08:41:13;;;;;;;5.60;3.20;;;537.70;2406.40;;;;;;5094846;28;20028;-78
2022/05/18 08:43:46;;;;;;;6.40;3.30;;;537.70;2406.40;;;;;;5094944;28;20059;-80
2022/05/18 08:46:15;;;;;;;6.40;2.95;;;537.80;2406.40;;;;;;5094704;28;20120;-80
2022/05/18 08:49:10;;;;;;;10.95;3.80;;;537.60;2406.40;;;;;;5094654;28;20024;-77
2022/05/18 08:51:54;;;;;;;11.00;4.53;;;537.70;2406.40;;;;;;5111791;28;20464;-79
2022/05/18 08:54:47;;;;;;;8.02;4.20;;;537.60;2406.40;;;;;;5111496;28;20432;-80
2022/05/18 08:57:23;;;;;;;9.05;4.15;;;537.90;2406.40;;;;;;5095673;28;20031;-80
2022/05/18 08:59:56;;;;;;;7.32;3.70;;;538.10;2406.40;;;;;;5094508;28;20052;-80
2022/05/18 09:02:29;;;;;;;5.13;3.40;;;538.00;2406.40;;;;;;5093642;28;20024;-78
2022/05/18 09:05:00;;;;;;;8.15;4.03;;;538.00;2406.40;;;;;;5110335;28;20063;-80
2022/05/18 09:07:33;;;;;;;6.75;3.83;;;537.90;2406.40;;;;;;5115708;28;20028;-81
2022/05/18 09:10:12;;;;;;;6.88;3.53;;;537.70;2406.40;;;;;;5114601;28;20035;-81
2022/05/18 09:12:40;;;;;;;7.28;4.05;;;537.60;2406.40;;;;;;5113055;28;20076;-83
2022/05/18 09:15:09;;;;;;;7.72;4.28;;;538.10;2406.40;;;;;;5115805;27;20414;-81
2022/05/18 09:17:42;;;;;;;7.30;3.75;;;563.20;2432.00;;;;;;5113779;28;20031;-79
2022/05/18 09:20:17;;;;;;;8.93;3.65;;;563.40;2432.00;;;;;;5111340;28;20016;-80
2022/05/18 09:23:17;;;;;;;9.95;3.90;;;563.70;2432.00;;;;;;5112818;28;20019;-78
2022/05/18 09:26:02;;;;;;;6.97;3.28;;;563.70;2432.00;;;;;;5124963;27;20126;-79
2022/05/18 09:28:42;;;;;;;6.05;3.35;;;563.90;2432.00;;;;;;5109706;28;20035;-80
2022/05/18 09:31:18;;;;;;;4.75;2.70;;;589.10;2406.40;;;;;;5109326;28;20028;-80
2022/05/18 09:34:12;;;;;;;6.13;2.95;;;564.10;2329.60;;;;;;5110859;28;20023;-79
2022/05/18 09:37:05;;;;;;;5.65;2.75;;;564.00;2329.60;;;;;;5114613;28;20463;-78
2022/05/18 09:39:35;;;;;;;5.30;2.50;;;588.80;2227.20;;;;;;5114573;28;20019;-79
2022/05/18 09:42:19;;;;;;;4.60;2.78;;;589.40;2176.00;;;;;;5114035;28;20454;-79
2022/05/18 09:45:10;;;;;;;7.53;2.80;;;589.40;2073.60;;;;;;5114480;28;20035;-79
2022/05/18 09:47:52;;;;;;;10.65;3.15;;;589.00;2099.20;;;;;;5114065;28;20031;-79
2022/05/18 09:50:19;;;;;;;4.82;2.47;;;564.10;2073.60;;;;;;5113812;27;20031;-80
2022/05/18 09:52:46;;;;;;;9.38;3.50;;;564.10;1996.80;;;;;;5114034;28;20110;-78
2022/05/18 09:55:14;;;;;;;6.35;2.72;;;564.10;1996.80;;;;;;5113658;28;20023;-78
2022/05/18 09:57:55;;;;;;;9.57;4.78;;;563.80;2022.40;;;;;;5113968;28;20038;-81
2022/05/18 10:00:26;;;;;;;9.38;3.40;;;563.80;2048.00;;;;;;5113961;28;20023;-80
2022/05/18 10:08:33;;;;;;;8.20;2.63;;;588.90;1971.20;;;;;;5114664;28;20484;-80
2022/05/18 10:11:04;;;;;;;11.02;2.95;;;563.80;1971.20;;;;;;5113283;28;20028;-80
2022/05/18 10:13:33;;;;;;;6.22;3.08;;;564.10;1996.80;;;;;;5113624;28;20079;-77
2022/05/18 10:16:11;;;;;;;5.18;2.28;;;564.00;1996.80;;;;;;5103797;28;20032;-78
2022/05/18 10:18:53;;;;;;;4.05;2.20;;;564.10;1945.60;;;;;;5094386;28;20028;-76
2022/05/18 10:21:26;;;;;;;;;;;564.10;1945.60;;;;;;5113814;28;20019;-77
2022/05/18 10:23:52;;;;;;;;;;;589.50;1894.40;;;;;;5113505;28;19903;-78
2022/05/18 10:26:28;;;;;;;4.32;2.28;;;614.60;1894.40;;;;;;5112924;28;19990;-77
2022/05/18 10:29:06;;;;;;;10.43;4.07;;;614.70;1868.80;;;;;;5114919;28;20023;-78
2022/05/18 10:31:42;;;;;;;8.32;2.75;;;614.90;1792.00;;;;;;5114537;27;20523;-76
2022/05/18 10:34:28;;;;;;;3.53;2.35;;;640.00;1766.40;;;;;;5114278;28;20114;-79
2022/05/18 10:37:00;;;;;;;10.25;2.42;;;640.40;1740.80;;;;;;5114293;28;20107;-76
2022/05/18 10:39:37;;;;;;;10.40;4.32;;;640.20;1689.60;;;;;;5131262;28;20024;-76
2022/05/18 10:42:25;;;;;;;5.72;3.55;;;640.10;1689.60;;;;;;5118218;28;20455;-77
2022/05/18 10:44:53;;;;;;;5.53;3.55;;;640.50;1715.20;;;;;;5114175;28;20391;-78
2022/05/18 10:47:26;;;;;;;5.20;2.40;;;640.70;1689.60;;;;;;5114661;28;20023;-76
2022/05/18 10:50:08;;;;;;;5.05;2.72;;;640.60;1664.00;;;;;;5113002;28;20031;-76
2022/05/18 10:52:34;;;;;;;5.57;2.30;;;640.10;1689.60;;;;;;5112711;28;20114;-76
2022/05/18 10:55:10;;;;;;;5.80;2.60;;;640.30;1689.60;;;;;;5114178;28;20543;-74
2022/05/18 10:57:39;;;;;;;7.50;3.63;;;640.10;1740.80;;;;;;5112966;28;20039;-72
2022/05/18 11:00:15;;;;;;;5.82;2.60;;;640.50;1689.60;;;;;;5113841;28;20023;-75
2022/05/18 11:03:08;;;;;;;4.65;2.53;;;640.70;1689.60;;;;;;5113877;28;20588;-75
2022/05/18 11:05:44;;;;;;;6.15;2.33;;;640.90;1638.40;;;;;;5112328;28;20080;-75
2022/05/18 11:08:14;;;;;;;12.80;6.43;;;640.70;1612.80;;;;;;5113646;28;20486;-75
2022/05/18 11:10:55;;;;;;;9.00;2.40;;;640.70;1638.40;;;;;;5113994;28;20034;-75
2022/05/18 11:13:34;;;;;;;6.10;2.15;;;640.60;1612.80;;;;;;5112418;28;20027;-74
2022/05/18 11:16:32;;;;;;;6.28;1.95;;;665.60;1638.40;;;;;;5113831;28;20035;-77
2022/05/18 11:18:58;;;;;;;6.30;2.35;;;640.40;1638.40;;;;;;5097235;27;20043;-79
2022/05/18 11:21:43;;;;;;;19.73;2.65;;;640.40;1638.40;;;;;;5116776;28;20020;-74
2022/05/18 11:24:30;;;;;;;6.53;2.50;;;640.50;1638.40;;;;;;5117776;28;20119;-73
2022/05/18 11:27:20;;;;;;;6.22;3.50;;;640.70;1612.80;;;;;;5116258;28;20050;-77
2022/05/18 11:30:07;;;;;;;4.80;2.42;;;640.60;1587.20;;;;;;5116706;28;20395;-76
2022/05/18 11:32:48;;;;;;;7.18;2.30;;;665.80;1612.80;;;;;;5116737;28;20027;-79
2022/05/18 11:35:34;;;;;;;6.95;2.22;;;666.30;1561.60;;;;;;5117358;28;20055;-73
2022/05/18 11:38:31;;;;;;;7.43;2.00;;;691.30;1536.00;;;;;;5115726;28;20169;-75
2022/05/18 11:41:09;;;;;;;5.15;2.05;;;691.70;1433.60;;;;;;5116154;28;20034;-75
2022/05/18 11:43:57;;;;;;;4.28;2.13;;;692.10;1382.40;;;;;;5116459;28;20439;-75
2022/05/18 11:46:29;;;;;;;8.20;1.80;;;717.10;1382.40;;;;;;5117464;28;20462;-75
2022/05/18 11:49:01;;;;;;;4.55;2.28;;;716.90;1331.20;;;;;;5116520;28;20550;-75
2022/05/18 11:51:31;;;;;;;;;;;692.00;1305.60;;;;;;5117222;28;20027;-75
2022/05/18 11:54:11;;;;;;;10.27;2.25;;;691.90;1331.20;;;;;;5117687;28;20339;-74
2022/05/18 11:57:03;;;;;;;5.22;1.88;;;692.10;1356.80;;;;;;5116275;28;20118;-75
2022/05/18 11:59:53;;;;;;;9.57;2.17;;;691.70;1331.20;;;;;;5116283;28;20479;-76
2022/05/18 12:02:57;;;;;;;3.55;1.80;;;716.80;1356.80;;;;;;5116825;28;20031;-76
2022/05/18 12:05:41;;;;;;;9.05;2.58;;;716.80;1305.60;;;;;;5118611;28;20057;-74
2022/05/18 12:08:39;;;;;;;10.00;2.10;;;692.00;1254.40;;;;;;5117448;28;20401;-73
2022/05/18 12:11:33;;;;;;;5.88;1.90;;;692.00;1203.20;;;;;;5117164;28;20347;-76
2022/05/18 12:14:10;;;;;;;4.38;2.25;;;716.80;1228.80;;;;;;5115804;28;20030;-77
2022/05/18 12:16:41;;;;;;;5.50;1.70;;;717.10;1152.00;;;;;;5100629;28;20054;-76
2022/05/18 12:19:43;;;;;;;7.28;2.75;;;692.10;1126.40;;;;;;5094950;28;20067;-76
2022/05/18 12:22:50;;;;;;;5.75;1.48;;;717.10;1152.00;;;;;;5096374;28;20020;-76
2022/05/18 12:25:22;;;;;;;11.50;2.42;;;717.20;1100.80;;;;;;5094922;28;20043;-77
2022/05/18 12:27:50;;;;;;;3.78;1.50;;;717.20;1075.20;;;;;;5094268;28;20096;-77
2022/05/18 12:30:20;;;;;;;15.35;2.20;;;717.00;1075.20;;;;;;5096157;28;20032;-75
2022/05/18 12:32:46;;;;;;;2.78;1.30;;;716.90;1100.80;;;;;;5096355;28;20063;-76
2022/05/18 12:35:35;;;;;;;7.38;1.63;;;717.10;1100.80;;;;;;5094978;28;20058;-75
2022/05/18 12:38:09;;;;;;;6.72;1.77;;;717.40;1126.40;;;;;;5111739;28;20141;-76
2022/05/18 12:40:48;;;;;;;7.60;2.78;;;717.50;1126.40;;;;;;5111877;28;20036;-77
2022/05/18 12:43:28;;;;;;;6.55;1.70;;;717.50;1100.80;;;;;;5094667;28;20135;-76
2022/05/18 12:46:04;;;;;;;10.52;1.50;;;717.70;1075.20;;;;;;5095768;28;20514;-74
2022/05/18 12:48:38;;;;;;;4.13;1.50;;;742.40;1152.00;;;;;;5094728;28;20060;-74
2022/05/18 12:51:32;;;;;;;6.53;1.83;;;717.70;1126.40;;;;;;5095681;28;20024;-76
2022/05/18 12:54:03;;;;;;;8.55;1.70;;;717.70;1126.40;;;;;;5111708;28;20028;-78
2022/05/18 12:56:35;;;;;;;11.30;2.08;;;717.00;1152.00;;;;;;5095638;28;20028;-77